sensor_id;sensor_type;location;lat;lon;timestamp;temperature;humidity
3678;DHT22;1855;50.934;6.958;2022-07-18T00:00:36;20.40;46.90
3678;DHT22;1855;50.934;6.958;2022-07-18T00:03:04;20.40;48.30
3678;DHT22;1855;50.934;6.958;2022-07-18T00:05:31;20.30;47.60
3678;DHT22;1855;50.934;6.958;2022-07-18T00:07:58;20.30;48.50
3678;DHT22;1855;50.934;6.958;2022-07-18T00:10:28;20.30;48.80
3678;DHT22;1855;50.934;6.958;2022-07-18T00:12:55;20.20;48.90
3678;DHT22;1855;50.934;6.958;2022-07-18T00:15:22;20.20;49.60
3678;DHT22;1855;50.934;6.958;2022-07-18T00:17:48;20.20;49.30
3678;DHT22;1855;50.934;6.958;2022-07-18T00:20:17;20.20;50.10
3678;DHT22;1855;50.934;6.958;2022-07-18T00:22:43;20.20;48.70
3678;DHT22;1855;50.934;6.958;2022-07-18T00:25:10;20.10;49.20
3678;DHT22;1855;50.934;6.958;2022-07-18T00:27:37;20.10;50.60
3678;DHT22;1855;50.934;6.958;2022-07-18T00:30:05;20.00;50.90
3678;DHT22;1855;50.934;6.958;2022-07-18T00:32:32;20.00;50.00
3678;DHT22;1855;50.934;6.958;2022-07-18T00:34:58;20.00;50.20
3678;DHT22;1855;50.934;6.958;2022-07-18T00:37:27;20.00;50.50
3678;DHT22;1855;50.934;6.958;2022-07-18T00:39:53;19.90;50.60
3678;DHT22;1855;50.934;6.958;2022-07-18T00:42:21;19.90;50.50
3678;DHT22;1855;50.934;6.958;2022-07-18T00:44:52;19.90;49.50
3678;DHT22;1855;50.934;6.958;2022-07-18T00:47:19;19.80;48.70
3678;DHT22;1855;50.934;6.958;2022-07-18T00:49:46;19.80;48.80
3678;DHT22;1855;50.934;6.958;2022-07-18T00:52:13;19.80;46.90
3678;DHT22;1855;50.934;6.958;2022-07-18T00:54:42;19.80;48.20
3678;DHT22;1855;50.934;6.958;2022-07-18T00:57:08;19.80;47.50
3678;DHT22;1855;50.934;6.958;2022-07-18T00:59:37;19.80;47.50
3678;DHT22;1855;50.934;6.958;2022-07-18T01:02:22;19.70;46.70
3678;DHT22;1855;50.934;6.958;2022-07-18T01:04:49;19.70;47.30
3678;DHT22;1855;50.934;6.958;2022-07-18T01:07:16;19.70;46.70
3678;DHT22;1855;50.934;6.958;2022-07-18T01:09:44;19.70;46.40
3678;DHT22;1855;50.934;6.958;2022-07-18T01:12:11;19.70;47.10
3678;DHT22;1855;50.934;6.958;2022-07-18T01:14:39;19.60;47.30
3678;DHT22;1855;50.934;6.958;2022-07-18T01:17:14;19.60;47.50
3678;DHT22;1855;50.934;6.958;2022-07-18T01:19:41;19.50;48.00
3678;DHT22;1855;50.934;6.958;2022-07-18T01:22:10;19.50;48.20
3678;DHT22;1855;50.934;6.958;2022-07-18T01:24:39;19.40;47.40
3678;DHT22;1855;50.934;6.958;2022-07-18T01:27:06;19.40;48.50
3678;DHT22;1855;50.934;6.958;2022-07-18T01:29:33;19.40;48.00
3678;DHT22;1855;50.934;6.958;2022-07-18T01:32:04;19.40;49.00
3678;DHT22;1855;50.934;6.958;2022-07-18T01:34:31;19.40;48.40
3678;DHT22;1855;50.934;6.958;2022-07-18T01:36:58;19.30;48.60
3678;DHT22;1855;50.934;6.958;2022-07-18T01:39:26;19.30;48.80
3678;DHT22;1855;50.934;6.958;2022-07-18T01:41:55;19.20;48.60
3678;DHT22;1855;50.934;6.958;2022-07-18T01:44:22;19.20;49.90
3678;DHT22;1855;50.934;6.958;2022-07-18T01:46:49;19.20;49.10
3678;DHT22;1855;50.934;6.958;2022-07-18T01:49:16;19.10;48.90
3678;DHT22;1855;50.934;6.958;2022-07-18T01:51:44;19.10;49.70
3678;DHT22;1855;50.934;6.958;2022-07-18T01:54:12;19.10;49.70
3678;DHT22;1855;50.934;6.958;2022-07-18T01:56:40;19.10;50.00
3678;DHT22;1855;50.934;6.958;2022-07-18T01:59:07;19.10;50.30
3678;DHT22;1855;50.934;6.958;2022-07-18T02:01:34;19.00;50.60
3678;DHT22;1855;50.934;6.958;2022-07-18T02:04:00;19.00;50.90
3678;DHT22;1855;50.934;6.958;2022-07-18T02:06:27;19.00;50.10
3678;DHT22;1855;50.934;6.958;2022-07-18T02:08:54;19.00;49.70
3678;DHT22;1855;50.934;6.958;2022-07-18T02:11:21;19.00;50.30
3678;DHT22;1855;50.934;6.958;2022-07-18T02:13:49;18.90;50.10
3678;DHT22;1855;50.934;6.958;2022-07-18T02:16:16;18.90;49.30
3678;DHT22;1855;50.934;6.958;2022-07-18T02:18:43;18.90;49.30
3678;DHT22;1855;50.934;6.958;2022-07-18T02:21:09;18.80;48.90
3678;DHT22;1855;50.934;6.958;2022-07-18T02:23:36;18.80;48.40
3678;DHT22;1855;50.934;6.958;2022-07-18T02:26:03;18.80;49.40
3678;DHT22;1855;50.934;6.958;2022-07-18T02:28:30;18.80;49.20
3678;DHT22;1855;50.934;6.958;2022-07-18T02:30:58;18.70;49.70
3678;DHT22;1855;50.934;6.958;2022-07-18T02:33:26;18.70;51.30
3678;DHT22;1855;50.934;6.958;2022-07-18T02:35:52;18.70;51.20
3678;DHT22;1855;50.934;6.958;2022-07-18T02:38:19;18.70;51.30
3678;DHT22;1855;50.934;6.958;2022-07-18T02:40:46;18.60;51.40
3678;DHT22;1855;50.934;6.958;2022-07-18T02:43:13;18.60;51.50
3678;DHT22;1855;50.934;6.958;2022-07-18T02:45:39;18.60;50.90
3678;DHT22;1855;50.934;6.958;2022-07-18T02:48:08;18.50;51.20
3678;DHT22;1855;50.934;6.958;2022-07-18T02:50:34;18.50;52.10
3678;DHT22;1855;50.934;6.958;2022-07-18T02:53:01;18.40;51.60
3678;DHT22;1855;50.934;6.958;2022-07-18T02:55:28;18.40;52.80
3678;DHT22;1855;50.934;6.958;2022-07-18T02:57:55;18.40;52.60
3678;DHT22;1855;50.934;6.958;2022-07-18T03:00:22;18.30;52.70
3678;DHT22;1855;50.934;6.958;2022-07-18T03:02:49;18.40;53.00
3678;DHT22;1855;50.934;6.958;2022-07-18T03:05:17;18.30;53.00
3678;DHT22;1855;50.934;6.958;2022-07-18T03:07:43;18.30;53.90
3678;DHT22;1855;50.934;6.958;2022-07-18T03:10:10;18.20;53.80
3678;DHT22;1855;50.934;6.958;2022-07-18T03:12:37;18.20;54.20
3678;DHT22;1855;50.934;6.958;2022-07-18T03:15:06;18.20;54.10
3678;DHT22;1855;50.934;6.958;2022-07-18T03:17:33;18.10;54.20
3678;DHT22;1855;50.934;6.958;2022-07-18T03:20:00;18.10;54.60
3678;DHT22;1855;50.934;6.958;2022-07-18T03:22:28;18.10;55.10
3678;DHT22;1855;50.934;6.958;2022-07-18T03:24:55;18.10;55.10
3678;DHT22;1855;50.934;6.958;2022-07-18T03:27:21;18.00;54.80
3678;DHT22;1855;50.934;6.958;2022-07-18T03:29:48;18.00;55.40
3678;DHT22;1855;50.934;6.958;2022-07-18T03:32:15;17.90;55.00
3678;DHT22;1855;50.934;6.958;2022-07-18T03:34:42;17.90;55.50
3678;DHT22;1855;50.934;6.958;2022-07-18T03:37:08;17.90;55.70
3678;DHT22;1855;50.934;6.958;2022-07-18T03:39:37;17.90;56.00
3678;DHT22;1855;50.934;6.958;2022-07-18T03:42:03;17.80;55.90
3678;DHT22;1855;50.934;6.958;2022-07-18T03:44:30;17.80;56.30
3678;DHT22;1855;50.934;6.958;2022-07-18T03:46:57;17.80;56.30
3678;DHT22;1855;50.934;6.958;2022-07-18T03:49:24;17.70;56.40
3678;DHT22;1855;50.934;6.958;2022-07-18T03:51:50;17.60;56.50
3678;DHT22;1855;50.934;6.958;2022-07-18T03:54:21;17.70;56.40
3678;DHT22;1855;50.934;6.958;2022-07-18T03:56:49;17.60;56.80
3678;DHT22;1855;50.934;6.958;2022-07-18T03:59:16;17.60;56.60
3678;DHT22;1855;50.934;6.958;2022-07-18T04:01:42;17.60;56.40
3678;DHT22;1855;50.934;6.958;2022-07-18T04:04:09;17.60;56.40
3678;DHT22;1855;50.934;6.958;2022-07-18T04:06:36;17.60;56.50
3678;DHT22;1855;50.934;6.958;2022-07-18T04:09:03;17.60;56.50
3678;DHT22;1855;50.934;6.958;2022-07-18T04:11:30;17.50;56.80
3678;DHT22;1855;50.934;6.958;2022-07-18T04:13:58;17.50;57.60
3678;DHT22;1855;50.934;6.958;2022-07-18T04:16:25;17.50;57.40
3678;DHT22;1855;50.934;6.958;2022-07-18T04:18:52;17.50;57.70
3678;DHT22;1855;50.934;6.958;2022-07-18T04:21:18;17.50;56.90
3678;DHT22;1855;50.934;6.958;2022-07-18T04:23:45;17.50;56.00
3678;DHT22;1855;50.934;6.958;2022-07-18T04:26:12;17.40;56.70
3678;DHT22;1855;50.934;6.958;2022-07-18T04:28:39;17.40;57.10
3678;DHT22;1855;50.934;6.958;2022-07-18T04:31:07;17.40;57.20
3678;DHT22;1855;50.934;6.958;2022-07-18T04:33:34;17.40;57.40
3678;DHT22;1855;50.934;6.958;2022-07-18T04:36:01;17.40;57.40
3678;DHT22;1855;50.934;6.958;2022-07-18T04:38:27;17.40;57.10
3678;DHT22;1855;50.934;6.958;2022-07-18T04:40:59;17.30;57.40
3678;DHT22;1855;50.934;6.958;2022-07-18T04:43:26;17.30;57.90
3678;DHT22;1855;50.934;6.958;2022-07-18T04:45:52;17.30;57.00
3678;DHT22;1855;50.934;6.958;2022-07-18T04:48:21;17.30;57.00
3678;DHT22;1855;50.934;6.958;2022-07-18T04:50:47;17.30;56.50
3678;DHT22;1855;50.934;6.958;2022-07-18T04:53:14;17.30;56.60
3678;DHT22;1855;50.934;6.958;2022-07-18T04:55:42;17.30;56.90
3678;DHT22;1855;50.934;6.958;2022-07-18T04:58:09;17.30;55.70
3678;DHT22;1855;50.934;6.958;2022-07-18T05:00:35;17.30;55.60
3678;DHT22;1855;50.934;6.958;2022-07-18T05:03:02;17.30;56.10
3678;DHT22;1855;50.934;6.958;2022-07-18T05:05:30;17.30;56.00
3678;DHT22;1855;50.934;6.958;2022-07-18T05:07:58;17.40;56.10
3678;DHT22;1855;50.934;6.958;2022-07-18T05:10:24;17.40;55.60
3678;DHT22;1855;50.934;6.958;2022-07-18T05:12:53;17.40;55.40
3678;DHT22;1855;50.934;6.958;2022-07-18T05:15:22;17.40;56.10
3678;DHT22;1855;50.934;6.958;2022-07-18T05:17:50;17.50;55.60
3678;DHT22;1855;50.934;6.958;2022-07-18T05:20:19;17.50;56.00
3678;DHT22;1855;50.934;6.958;2022-07-18T05:22:48;17.50;56.70
3678;DHT22;1855;50.934;6.958;2022-07-18T05:25:17;17.60;55.80
3678;DHT22;1855;50.934;6.958;2022-07-18T05:27:44;17.70;55.90
3678;DHT22;1855;50.934;6.958;2022-07-18T05:30:12;17.80;54.70
3678;DHT22;1855;50.934;6.958;2022-07-18T05:32:41;17.80;54.30
3678;DHT22;1855;50.934;6.958;2022-07-18T05:35:09;17.90;53.80
3678;DHT22;1855;50.934;6.958;2022-07-18T05:37:36;17.90;54.40
3678;DHT22;1855;50.934;6.958;2022-07-18T05:40:07;18.00;53.60
3678;DHT22;1855;50.934;6.958;2022-07-18T05:42:35;18.10;52.60
3678;DHT22;1855;50.934;6.958;2022-07-18T05:45:02;18.10;52.60
3678;DHT22;1855;50.934;6.958;2022-07-18T05:47:29;18.20;51.60
3678;DHT22;1855;50.934;6.958;2022-07-18T05:49:56;18.20;53.00
3678;DHT22;1855;50.934;6.958;2022-07-18T05:52:23;18.30;52.70
3678;DHT22;1855;50.934;6.958;2022-07-18T05:54:50;18.40;51.40
3678;DHT22;1855;50.934;6.958;2022-07-18T05:57:18;18.40;50.40
3678;DHT22;1855;50.934;6.958;2022-07-18T05:59:45;18.50;50.60
3678;DHT22;1855;50.934;6.958;2022-07-18T06:02:12;18.60;51.30
3678;DHT22;1855;50.934;6.958;2022-07-18T06:04:39;18.60;50.40
3678;DHT22;1855;50.934;6.958;2022-07-18T06:07:05;18.60;49.90
3678;DHT22;1855;50.934;6.958;2022-07-18T06:09:32;18.70;49.30
3678;DHT22;1855;50.934;6.958;2022-07-18T06:12:00;18.80;49.20
3678;DHT22;1855;50.934;6.958;2022-07-18T06:14:29;18.90;48.10
3678;DHT22;1855;50.934;6.958;2022-07-18T06:16:56;18.90;48.00
3678;DHT22;1855;50.934;6.958;2022-07-18T06:19:22;19.00;48.50
3678;DHT22;1855;50.934;6.958;2022-07-18T06:21:50;19.10;48.20
3678;DHT22;1855;50.934;6.958;2022-07-18T06:24:17;19.10;48.10
3678;DHT22;1855;50.934;6.958;2022-07-18T06:26:44;19.20;48.30
3678;DHT22;1855;50.934;6.958;2022-07-18T06:29:11;19.30;48.60
3678;DHT22;1855;50.934;6.958;2022-07-18T06:31:39;19.40;48.60
3678;DHT22;1855;50.934;6.958;2022-07-18T06:34:06;19.40;47.50
3678;DHT22;1855;50.934;6.958;2022-07-18T06:36:33;19.50;47.20
3678;DHT22;1855;50.934;6.958;2022-07-18T06:38:59;19.60;46.50
3678;DHT22;1855;50.934;6.958;2022-07-18T06:41:27;19.70;46.20
3678;DHT22;1855;50.934;6.958;2022-07-18T06:43:54;19.80;46.30
3678;DHT22;1855;50.934;6.958;2022-07-18T06:46:21;19.90;45.60
3678;DHT22;1855;50.934;6.958;2022-07-18T06:48:49;20.00;45.20
3678;DHT22;1855;50.934;6.958;2022-07-18T06:51:16;20.10;45.00
3678;DHT22;1855;50.934;6.958;2022-07-18T06:53:42;20.10;44.90
3678;DHT22;1855;50.934;6.958;2022-07-18T06:56:09;20.30;44.40
3678;DHT22;1855;50.934;6.958;2022-07-18T06:58:36;20.40;44.10
3678;DHT22;1855;50.934;6.958;2022-07-18T07:01:03;20.50;43.70
3678;DHT22;1855;50.934;6.958;2022-07-18T07:03:32;20.60;43.90
3678;DHT22;1855;50.934;6.958;2022-07-18T07:06:00;20.70;44.80
3678;DHT22;1855;50.934;6.958;2022-07-18T07:08:27;20.80;44.20
3678;DHT22;1855;50.934;6.958;2022-07-18T07:10:54;20.90;44.30
3678;DHT22;1855;50.934;6.958;2022-07-18T07:13:20;21.10;43.90
3678;DHT22;1855;50.934;6.958;2022-07-18T07:15:47;21.30;42.90
3678;DHT22;1855;50.934;6.958;2022-07-18T07:18:14;21.40;42.50
3678;DHT22;1855;50.934;6.958;2022-07-18T07:20:41;21.50;42.70
3678;DHT22;1855;50.934;6.958;2022-07-18T07:23:09;21.70;42.40
3678;DHT22;1855;50.934;6.958;2022-07-18T07:25:36;21.80;41.50
3678;DHT22;1855;50.934;6.958;2022-07-18T07:28:04;22.00;41.60
3678;DHT22;1855;50.934;6.958;2022-07-18T07:30:31;22.10;41.20
3678;DHT22;1855;50.934;6.958;2022-07-18T07:32:59;22.30;40.40
3678;DHT22;1855;50.934;6.958;2022-07-18T07:35:26;22.50;40.20
3678;DHT22;1855;50.934;6.958;2022-07-18T07:37:55;22.60;39.10
3678;DHT22;1855;50.934;6.958;2022-07-18T07:40:25;22.80;40.30
3678;DHT22;1855;50.934;6.958;2022-07-18T07:42:52;23.00;39.00
3678;DHT22;1855;50.934;6.958;2022-07-18T07:45:19;23.30;38.20
3678;DHT22;1855;50.934;6.958;2022-07-18T07:47:46;23.50;37.80
3678;DHT22;1855;50.934;6.958;2022-07-18T07:50:13;23.60;37.10
3678;DHT22;1855;50.934;6.958;2022-07-18T07:52:40;23.80;37.20
3678;DHT22;1855;50.934;6.958;2022-07-18T07:55:07;24.00;37.40
3678;DHT22;1855;50.934;6.958;2022-07-18T07:57:36;24.10;36.50
3678;DHT22;1855;50.934;6.958;2022-07-18T08:00:04;24.20;36.20
3678;DHT22;1855;50.934;6.958;2022-07-18T08:02:33;24.30;36.10
3678;DHT22;1855;50.934;6.958;2022-07-18T08:05:00;24.40;35.60
3678;DHT22;1855;50.934;6.958;2022-07-18T08:07:27;24.50;36.10
3678;DHT22;1855;50.934;6.958;2022-07-18T08:09:53;24.60;35.90
3678;DHT22;1855;50.934;6.958;2022-07-18T08:12:20;24.80;34.90
3678;DHT22;1855;50.934;6.958;2022-07-18T08:14:48;24.80;34.50
3678;DHT22;1855;50.934;6.958;2022-07-18T08:17:17;24.80;34.80
3678;DHT22;1855;50.934;6.958;2022-07-18T08:19:43;25.00;35.00
3678;DHT22;1855;50.934;6.958;2022-07-18T08:22:10;25.30;35.20
3678;DHT22;1855;50.934;6.958;2022-07-18T08:24:37;25.60;34.40
3678;DHT22;1855;50.934;6.958;2022-07-18T08:27:04;25.80;33.40
3678;DHT22;1855;50.934;6.958;2022-07-18T08:29:31;25.90;33.00
3678;DHT22;1855;50.934;6.958;2022-07-18T08:31:59;26.00;33.00
3678;DHT22;1855;50.934;6.958;2022-07-18T08:34:26;26.20;32.60
3678;DHT22;1855;50.934;6.958;2022-07-18T08:36:52;26.30;32.50
3678;DHT22;1855;50.934;6.958;2022-07-18T08:39:19;26.60;32.00
3678;DHT22;1855;50.934;6.958;2022-07-18T08:41:46;26.70;31.90
3678;DHT22;1855;50.934;6.958;2022-07-18T08:44:15;26.80;31.50
3678;DHT22;1855;50.934;6.958;2022-07-18T08:46:46;27.00;31.20
3678;DHT22;1855;50.934;6.958;2022-07-18T08:49:16;27.10;31.10
3678;DHT22;1855;50.934;6.958;2022-07-18T08:51:44;27.30;30.40
3678;DHT22;1855;50.934;6.958;2022-07-18T08:54:11;27.60;30.60
3678;DHT22;1855;50.934;6.958;2022-07-18T08:56:38;27.90;30.20
3678;DHT22;1855;50.934;6.958;2022-07-18T08:59:04;28.20;30.00
3678;DHT22;1855;50.934;6.958;2022-07-18T09:01:31;28.30;29.20
3678;DHT22;1855;50.934;6.958;2022-07-18T09:03:58;28.30;29.60
3678;DHT22;1855;50.934;6.958;2022-07-18T09:06:49;28.40;30.20
3678;DHT22;1855;50.934;6.958;2022-07-18T09:09:17;28.60;29.00
3678;DHT22;1855;50.934;6.958;2022-07-18T09:11:51;28.90;28.80
3678;DHT22;1855;50.934;6.958;2022-07-18T09:14:35;29.00;28.90
3678;DHT22;1855;50.934;6.958;2022-07-18T09:17:07;29.10;29.00
3678;DHT22;1855;50.934;6.958;2022-07-18T09:19:35;29.30;28.60
3678;DHT22;1855;50.934;6.958;2022-07-18T09:22:19;29.40;28.50
3678;DHT22;1855;50.934;6.958;2022-07-18T09:24:54;29.80;27.70
3678;DHT22;1855;50.934;6.958;2022-07-18T09:27:27;30.10;27.70
3678;DHT22;1855;50.934;6.958;2022-07-18T09:30:16;30.40;27.40
3678;DHT22;1855;50.934;6.958;2022-07-18T09:32:47;30.60;26.60
3678;DHT22;1855;50.934;6.958;2022-07-18T09:35:16;30.80;26.40
3678;DHT22;1855;50.934;6.958;2022-07-18T09:38:00;31.00;26.10
3678;DHT22;1855;50.934;6.958;2022-07-18T09:40:29;31.10;25.50
3678;DHT22;1855;50.934;6.958;2022-07-18T09:42:58;31.10;25.60
3678;DHT22;1855;50.934;6.958;2022-07-18T09:45:27;31.40;25.90
3678;DHT22;1855;50.934;6.958;2022-07-18T09:47:55;31.80;25.40
3678;DHT22;1855;50.934;6.958;2022-07-18T09:50:34;32.20;25.00
3678;DHT22;1855;50.934;6.958;2022-07-18T09:53:08;32.50;24.80
3678;DHT22;1855;50.934;6.958;2022-07-18T09:55:35;32.70;24.10
3678;DHT22;1855;50.934;6.958;2022-07-18T09:58:04;32.80;23.70
3678;DHT22;1855;50.934;6.958;2022-07-18T10:00:33;33.20;23.10
3678;DHT22;1855;50.934;6.958;2022-07-18T10:03:01;33.40;22.40
3678;DHT22;1855;50.934;6.958;2022-07-18T10:05:29;33.60;21.90
3678;DHT22;1855;50.934;6.958;2022-07-18T10:07:57;33.70;22.10
3678;DHT22;1855;50.934;6.958;2022-07-18T10:10:27;33.60;22.10
3678;DHT22;1855;50.934;6.958;2022-07-18T10:12:55;33.60;22.00
3678;DHT22;1855;50.934;6.958;2022-07-18T10:15:23;33.90;21.80
3678;DHT22;1855;50.934;6.958;2022-07-18T10:17:50;34.10;21.90
3678;DHT22;1855;50.934;6.958;2022-07-18T10:20:18;34.10;21.40
3678;DHT22;1855;50.934;6.958;2022-07-18T10:22:52;34.20;22.00
3678;DHT22;1855;50.934;6.958;2022-07-18T10:25:21;34.00;21.20
3678;DHT22;1855;50.934;6.958;2022-07-18T10:27:52;34.00;21.90
3678;DHT22;1855;50.934;6.958;2022-07-18T10:30:33;34.10;21.70
3678;DHT22;1855;50.934;6.958;2022-07-18T10:33:01;34.30;21.10
3678;DHT22;1855;50.934;6.958;2022-07-18T10:36:00;34.40;21.30
3678;DHT22;1855;50.934;6.958;2022-07-18T10:38:28;34.40;21.30
3678;DHT22;1855;50.934;6.958;2022-07-18T10:41:03;34.60;20.40
3678;DHT22;1855;50.934;6.958;2022-07-18T10:43:40;34.50;21.10
3678;DHT22;1855;50.934;6.958;2022-07-18T10:46:09;34.70;20.00
3678;DHT22;1855;50.934;6.958;2022-07-18T10:48:53;34.90;20.50
3678;DHT22;1855;50.934;6.958;2022-07-18T10:51:27;35.20;20.00
3678;DHT22;1855;50.934;6.958;2022-07-18T10:53:56;35.40;20.20
3678;DHT22;1855;50.934;6.958;2022-07-18T10:57:08;35.50;19.70
3678;DHT22;1855;50.934;6.958;2022-07-18T10:59:36;35.60;19.70
3678;DHT22;1855;50.934;6.958;2022-07-18T11:02:07;35.70;19.80
3678;DHT22;1855;50.934;6.958;2022-07-18T11:04:39;35.80;20.60
3678;DHT22;1855;50.934;6.958;2022-07-18T11:07:09;35.80;19.30
3678;DHT22;1855;50.934;6.958;2022-07-18T11:09:39;35.90;19.00
3678;DHT22;1855;50.934;6.958;2022-07-18T11:12:22;35.80;19.30
3678;DHT22;1855;50.934;6.958;2022-07-18T11:15:10;35.90;19.20
3678;DHT22;1855;50.934;6.958;2022-07-18T11:18:01;36.10;18.90
3678;DHT22;1855;50.934;6.958;2022-07-18T11:20:39;36.20;18.60
3678;DHT22;1855;50.934;6.958;2022-07-18T11:23:18;36.40;18.90
3678;DHT22;1855;50.934;6.958;2022-07-18T11:25:46;36.30;18.60
3678;DHT22;1855;50.934;6.958;2022-07-18T11:28:14;36.20;19.50
3678;DHT22;1855;50.934;6.958;2022-07-18T11:30:42;36.20;18.90
3678;DHT22;1855;50.934;6.958;2022-07-18T11:33:22;36.30;19.00
3678;DHT22;1855;50.934;6.958;2022-07-18T11:35:50;36.30;18.90
3678;DHT22;1855;50.934;6.958;2022-07-18T11:38:17;36.20;18.50
3678;DHT22;1855;50.934;6.958;2022-07-18T11:40:48;36.10;18.50
3678;DHT22;1855;50.934;6.958;2022-07-18T11:43:24;36.20;19.00
3678;DHT22;1855;50.934;6.958;2022-07-18T11:46:02;36.40;19.30
3678;DHT22;1855;50.934;6.958;2022-07-18T11:48:29;36.70;18.60
3678;DHT22;1855;50.934;6.958;2022-07-18T11:50:56;37.00;18.40
3678;DHT22;1855;50.934;6.958;2022-07-18T11:53:23;37.10;18.40
3678;DHT22;1855;50.934;6.958;2022-07-18T11:55:50;37.20;18.70
3678;DHT22;1855;50.934;6.958;2022-07-18T11:58:17;37.10;18.30
3678;DHT22;1855;50.934;6.958;2022-07-18T12:00:46;37.00;18.00
3678;DHT22;1855;50.934;6.958;2022-07-18T12:03:16;37.00;18.90
3678;DHT22;1855;50.934;6.958;2022-07-18T12:05:47;36.90;18.50
3678;DHT22;1855;50.934;6.958;2022-07-18T12:08:32;36.90;18.50
3678;DHT22;1855;50.934;6.958;2022-07-18T12:11:11;37.00;18.00
3678;DHT22;1855;50.934;6.958;2022-07-18T12:13:40;36.90;18.50
3678;DHT22;1855;50.934;6.958;2022-07-18T12:16:20;36.90;18.60
3678;DHT22;1855;50.934;6.958;2022-07-18T12:18:48;36.90;18.90
3678;DHT22;1855;50.934;6.958;2022-07-18T12:21:15;36.90;19.00
3678;DHT22;1855;50.934;6.958;2022-07-18T12:23:42;37.10;18.60
3678;DHT22;1855;50.934;6.958;2022-07-18T12:26:09;37.30;19.10
3678;DHT22;1855;50.934;6.958;2022-07-18T12:28:35;37.50;18.50
3678;DHT22;1855;50.934;6.958;2022-07-18T12:31:02;37.70;18.60
3678;DHT22;1855;50.934;6.958;2022-07-18T12:33:31;37.70;17.80
3678;DHT22;1855;50.934;6.958;2022-07-18T12:35:58;37.70;19.00
3678;DHT22;1855;50.934;6.958;2022-07-18T12:38:26;37.80;17.70
3678;DHT22;1855;50.934;6.958;2022-07-18T12:40:57;37.60;18.30
3678;DHT22;1855;50.934;6.958;2022-07-18T12:43:27;37.30;18.10
3678;DHT22;1855;50.934;6.958;2022-07-18T12:45:55;37.50;19.20
3678;DHT22;1855;50.934;6.958;2022-07-18T12:48:22;37.70;18.30
3678;DHT22;1855;50.934;6.958;2022-07-18T12:50:57;38.00;18.30
3678;DHT22;1855;50.934;6.958;2022-07-18T12:53:25;38.30;17.50
3678;DHT22;1855;50.934;6.958;2022-07-18T12:55:52;38.50;17.50
3678;DHT22;1855;50.934;6.958;2022-07-18T12:58:19;38.70;17.80
3678;DHT22;1855;50.934;6.958;2022-07-18T13:00:47;38.80;17.60
3678;DHT22;1855;50.934;6.958;2022-07-18T13:03:14;38.90;17.50
3678;DHT22;1855;50.934;6.958;2022-07-18T13:05:42;38.80;17.40
3678;DHT22;1855;50.934;6.958;2022-07-18T13:08:10;38.60;17.10
3678;DHT22;1855;50.934;6.958;2022-07-18T13:10:38;38.40;17.10
3678;DHT22;1855;50.934;6.958;2022-07-18T13:13:06;38.10;17.30
3678;DHT22;1855;50.934;6.958;2022-07-18T13:15:34;38.00;17.60
3678;DHT22;1855;50.934;6.958;2022-07-18T13:18:01;38.00;17.70
3678;DHT22;1855;50.934;6.958;2022-07-18T13:20:28;38.20;18.10
3678;DHT22;1855;50.934;6.958;2022-07-18T13:22:56;38.40;17.90
3678;DHT22;1855;50.934;6.958;2022-07-18T13:25:28;38.60;17.80
3678;DHT22;1855;50.934;6.958;2022-07-18T13:27:55;38.60;18.00
3678;DHT22;1855;50.934;6.958;2022-07-18T13:30:22;38.60;17.90
3678;DHT22;1855;50.934;6.958;2022-07-18T13:32:49;38.50;17.20
3678;DHT22;1855;50.934;6.958;2022-07-18T13:35:16;38.50;17.20
3678;DHT22;1855;50.934;6.958;2022-07-18T13:37:43;38.50;17.80
3678;DHT22;1855;50.934;6.958;2022-07-18T13:40:11;38.70;18.00
3678;DHT22;1855;50.934;6.958;2022-07-18T13:42:40;38.70;17.60
3678;DHT22;1855;50.934;6.958;2022-07-18T13:45:08;38.70;17.90
3678;DHT22;1855;50.934;6.958;2022-07-18T13:47:35;38.80;17.40
3678;DHT22;1855;50.934;6.958;2022-07-18T13:50:01;38.70;17.40
3678;DHT22;1855;50.934;6.958;2022-07-18T13:52:28;38.80;17.60
3678;DHT22;1855;50.934;6.958;2022-07-18T13:54:55;38.90;18.20
3678;DHT22;1855;50.934;6.958;2022-07-18T13:57:22;39.00;17.30
3678;DHT22;1855;50.934;6.958;2022-07-18T13:59:50;38.90;17.20
3678;DHT22;1855;50.934;6.958;2022-07-18T14:02:17;38.80;17.40
3678;DHT22;1855;50.934;6.958;2022-07-18T14:04:44;38.70;17.30
3678;DHT22;1855;50.934;6.958;2022-07-18T14:07:11;38.70;17.10
3678;DHT22;1855;50.934;6.958;2022-07-18T14:09:42;38.30;17.60
3678;DHT22;1855;50.934;6.958;2022-07-18T14:12:10;38.30;17.90
3678;DHT22;1855;50.934;6.958;2022-07-18T14:14:36;38.40;17.70
3678;DHT22;1855;50.934;6.958;2022-07-18T14:17:04;38.50;17.90
3678;DHT22;1855;50.934;6.958;2022-07-18T14:19:31;38.80;17.70
3678;DHT22;1855;50.934;6.958;2022-07-18T14:21:59;38.80;18.00
3678;DHT22;1855;50.934;6.958;2022-07-18T14:24:25;38.70;17.20
3678;DHT22;1855;50.934;6.958;2022-07-18T14:26:52;38.70;17.80
3678;DHT22;1855;50.934;6.958;2022-07-18T14:29:20;38.50;17.20
3678;DHT22;1855;50.934;6.958;2022-07-18T14:31:46;38.40;17.90
3678;DHT22;1855;50.934;6.958;2022-07-18T14:34:15;38.30;17.90
3678;DHT22;1855;50.934;6.958;2022-07-18T14:36:41;38.10;17.70
3678;DHT22;1855;50.934;6.958;2022-07-18T14:39:08;38.10;17.70
3678;DHT22;1855;50.934;6.958;2022-07-18T14:41:35;38.00;18.20
3678;DHT22;1855;50.934;6.958;2022-07-18T14:44:02;38.10;18.00
3678;DHT22;1855;50.934;6.958;2022-07-18T14:46:29;38.00;18.10
3678;DHT22;1855;50.934;6.958;2022-07-18T14:48:55;38.10;18.40
3678;DHT22;1855;50.934;6.958;2022-07-18T14:51:23;38.10;18.10
3678;DHT22;1855;50.934;6.958;2022-07-18T14:53:50;38.20;18.30
3678;DHT22;1855;50.934;6.958;2022-07-18T14:56:17;38.30;18.90
3678;DHT22;1855;50.934;6.958;2022-07-18T14:58:44;38.40;18.00
3678;DHT22;1855;50.934;6.958;2022-07-18T15:01:10;38.50;18.40
3678;DHT22;1855;50.934;6.958;2022-07-18T15:03:37;38.60;17.90
3678;DHT22;1855;50.934;6.958;2022-07-18T15:06:04;38.70;18.30
3678;DHT22;1855;50.934;6.958;2022-07-18T15:08:32;38.80;17.90
3678;DHT22;1855;50.934;6.958;2022-07-18T15:10:59;38.80;17.60
3678;DHT22;1855;50.934;6.958;2022-07-18T15:13:26;38.70;17.90
3678;DHT22;1855;50.934;6.958;2022-07-18T15:15:52;38.60;18.20
3678;DHT22;1855;50.934;6.958;2022-07-18T15:18:19;38.40;17.60
3678;DHT22;1855;50.934;6.958;2022-07-18T15:20:46;38.30;17.80
3678;DHT22;1855;50.934;6.958;2022-07-18T15:23:13;38.20;17.80
3678;DHT22;1855;50.934;6.958;2022-07-18T15:25:41;38.10;17.70
3678;DHT22;1855;50.934;6.958;2022-07-18T15:28:08;37.90;17.90
3678;DHT22;1855;50.934;6.958;2022-07-18T15:30:35;37.80;18.40
3678;DHT22;1855;50.934;6.958;2022-07-18T15:33:01;37.60;17.70
3678;DHT22;1855;50.934;6.958;2022-07-18T15:35:28;37.50;18.10
3678;DHT22;1855;50.934;6.958;2022-07-18T15:37:55;37.40;19.00
3678;DHT22;1855;50.934;6.958;2022-07-18T15:40:22;37.50;18.40
3678;DHT22;1855;50.934;6.958;2022-07-18T15:42:50;37.60;18.50
3678;DHT22;1855;50.934;6.958;2022-07-18T15:45:17;37.70;18.30
3678;DHT22;1855;50.934;6.958;2022-07-18T15:47:44;37.80;18.20
3678;DHT22;1855;50.934;6.958;2022-07-18T15:50:11;37.80;18.40
3678;DHT22;1855;50.934;6.958;2022-07-18T15:52:38;38.00;18.50
3678;DHT22;1855;50.934;6.958;2022-07-18T15:55:06;38.10;17.80
3678;DHT22;1855;50.934;6.958;2022-07-18T15:57:33;38.20;17.90
3678;DHT22;1855;50.934;6.958;2022-07-18T16:00:02;38.20;17.70
3678;DHT22;1855;50.934;6.958;2022-07-18T16:02:29;38.20;17.30
3678;DHT22;1855;50.934;6.958;2022-07-18T16:04:56;38.20;18.20
3678;DHT22;1855;50.934;6.958;2022-07-18T16:07:22;38.20;17.50
3678;DHT22;1855;50.934;6.958;2022-07-18T16:09:49;38.40;17.40